createdAt,value
2023-03-30T00:01:17.345Z,14.07
2023-03-30T00:03:46.265Z,14.03
2023-03-30T00:06:21.145Z,14.00
2023-03-30T00:08:53.244Z,13.98
2023-03-30T00:11:23.199Z,13.97
2023-03-30T00:13:51.652Z,13.97
2023-03-30T00:16:19.927Z,13.98
2023-03-30T00:18:47.711Z,13.99
2023-03-30T00:21:17.871Z,14.03
2023-03-30T00:23:47.891Z,14.12
2023-03-30T00:26:17.935Z,14.14
2023-03-30T00:28:46.115Z,14.17
2023-03-30T00:31:13.811Z,14.18
2023-03-30T00:33:45.506Z,14.19
2023-03-30T00:36:13.981Z,14.19
2023-03-30T00:38:42.167Z,14.18
2023-03-30T00:41:10.170Z,14.18
2023-03-30T00:44:01.185Z,14.17
2023-03-30T00:46:29.501Z,14.14
2023-03-30T00:48:59.247Z,14.11
2023-03-30T00:51:28.824Z,14.11
2023-03-30T00:54:01.012Z,14.09
2023-03-30T00:56:31.314Z,14.12
2023-03-30T00:59:01.771Z,14.12
2023-03-30T01:01:31.117Z,14.15
2023-03-30T01:04:02.154Z,14.14
2023-03-30T01:06:31.397Z,14.12
2023-03-30T01:08:59.796Z,14.10
2023-03-30T01:11:28.328Z,14.07
2023-03-30T01:14:01.956Z,14.04
2023-03-30T01:16:36.375Z,13.99
2023-03-30T01:19:26.696Z,13.95
2023-03-30T01:22:23.584Z,13.95
2023-03-30T01:25:18.392Z,13.94
2023-03-30T01:28:14.677Z,13.93
2023-03-30T01:31:07.078Z,13.93
2023-03-30T01:34:22.621Z,14.00
2023-03-30T01:37:27.275Z,14.12
2023-03-30T01:40:05.849Z,14.22
2023-03-30T01:42:39.801Z,14.32
2023-03-30T01:45:16.839Z,14.32
2023-03-30T01:47:54.197Z,14.33
2023-03-30T01:50:26.939Z,14.34
2023-03-30T01:52:59.902Z,14.44
2023-03-30T01:55:33.554Z,14.54
2023-03-30T01:58:05.724Z,14.53
2023-03-30T02:00:38.175Z,14.55
2023-03-30T02:03:11.487Z,14.54
2023-03-30T02:05:41.871Z,14.56
2023-03-30T02:08:13.419Z,14.60
2023-03-30T02:10:44.923Z,14.64
2023-03-30T02:13:14.541Z,14.67
2023-03-30T02:15:45.866Z,14.77
2023-03-30T02:18:13.572Z,14.77
2023-03-30T02:20:42.631Z,14.88
2023-03-30T02:23:11.440Z,14.94
2023-03-30T02:25:40.352Z,14.95
2023-03-30T02:28:09.892Z,15.00
2023-03-30T02:30:42.388Z,14.97
2023-03-30T02:33:20.458Z,15.01
2023-03-30T02:36:11.524Z,15.09
2023-03-30T02:38:57.415Z,15.19
2023-03-30T02:41:39.399Z,15.21
2023-03-30T02:44:15.938Z,15.31
2023-03-30T02:47:01.536Z,15.36
2023-03-30T02:49:41.564Z,15.39
2023-03-30T02:52:17.124Z,15.38
2023-03-30T02:54:51.019Z,15.34
2023-03-30T02:57:30.774Z,15.30
2023-03-30T03:00:07.412Z,15.24
2023-03-30T03:02:38.466Z,15.19
2023-03-30T03:05:11.164Z,15.11
2023-03-30T03:07:40.610Z,15.08
2023-03-30T03:10:09.946Z,15.04
2023-03-30T03:12:38.143Z,14.98
2023-03-30T03:15:08.538Z,15.02
2023-03-30T03:17:36.520Z,15.01
2023-03-30T03:20:05.872Z,15.07
2023-03-30T03:22:33.515Z,15.08
2023-03-30T03:25:02.527Z,15.12
2023-03-30T03:27:30.250Z,15.13
2023-03-30T03:29:57.889Z,15.16
2023-03-30T03:32:26.941Z,15.16
2023-03-30T03:34:54.704Z,15.17
2023-03-30T03:37:22.396Z,15.19
2023-03-30T03:39:50.039Z,15.17
2023-03-30T03:42:17.726Z,15.17
2023-03-30T03:44:45.735Z,15.15
2023-03-30T03:47:16.337Z,15.12
2023-03-30T03:49:45.639Z,15.09
2023-03-30T03:52:13.312Z,15.02
2023-03-30T03:54:40.969Z,15.01
2023-03-30T03:57:08.802Z,14.96
2023-03-30T03:59:36.692Z,14.95
2023-03-30T04:02:05.482Z,14.94
2023-03-30T04:04:33.273Z,14.93
2023-03-30T04:07:02.247Z,14.91
2023-03-30T04:09:29.928Z,14.90
2023-03-30T04:11:57.702Z,14.88
2023-03-30T04:14:25.881Z,14.86
2023-03-30T04:16:53.564Z,14.84
2023-03-30T04:19:25.207Z,14.83
2023-03-30T04:21:52.951Z,14.83
2023-03-30T04:24:22.483Z,14.82
2023-03-30T04:26:50.205Z,14.81
2023-03-30T04:29:17.864Z,14.81
2023-03-30T04:31:47.105Z,14.79
2023-03-30T04:34:14.908Z,14.81
2023-03-30T04:36:44.308Z,14.83
2023-03-30T04:39:12.103Z,14.84
2023-03-30T04:41:41.841Z,14.86
2023-03-30T04:44:11.132Z,14.87
2023-03-30T04:46:39.059Z,14.87
2023-03-30T04:49:06.762Z,14.87
2023-03-30T04:51:34.616Z,14.86
2023-03-30T04:54:03.126Z,14.87
2023-03-30T04:56:30.807Z,14.85
2023-03-30T04:58:59.837Z,14.84
2023-03-30T05:01:27.549Z,14.81
2023-03-30T05:03:55.329Z,14.81
2023-03-30T05:06:23.110Z,14.79
2023-03-30T05:08:50.981Z,14.80
2023-03-30T05:11:18.646Z,14.86
2023-03-30T05:13:47.241Z,14.86
2023-03-30T05:16:16.243Z,14.90
2023-03-30T05:18:44.532Z,14.93
2023-03-30T05:21:12.221Z,14.94
2023-03-30T05:23:40.869Z,14.93
2023-03-30T05:26:09.113Z,14.92
2023-03-30T05:28:36.771Z,14.94
2023-03-30T05:31:04.757Z,14.93
2023-03-30T05:33:33.925Z,14.97
2023-03-30T05:36:01.751Z,14.96
2023-03-30T05:38:29.379Z,14.93
2023-03-30T05:40:57.133Z,14.95
2023-03-30T05:43:25.014Z,14.98
2023-03-30T05:45:52.718Z,14.93
2023-03-30T05:48:20.628Z,14.87
2023-03-30T05:50:49.931Z,14.83
2023-03-30T05:53:18.052Z,14.78
2023-03-30T05:55:47.159Z,14.77
2023-03-30T05:58:14.796Z,14.78
2023-03-30T06:00:42.474Z,14.80
2023-03-30T06:03:10.412Z,14.87
2023-03-30T06:05:39.898Z,14.93
2023-03-30T06:08:09.371Z,14.96
2023-03-30T06:10:37.827Z,14.98
2023-03-30T06:13:06.292Z,14.96
2023-03-30T06:15:34.173Z,14.93
2023-03-30T06:18:03.961Z,14.92
2023-03-30T06:20:32.069Z,14.94
2023-03-30T06:22:59.722Z,14.93
2023-03-30T06:25:29.589Z,14.93
2023-03-30T06:27:57.793Z,14.92
2023-03-30T06:30:25.575Z,14.94
2023-03-30T06:32:53.386Z,14.95
2023-03-30T06:35:21.250Z,14.97
2023-03-30T06:37:48.957Z,14.98
2023-03-30T06:40:17.284Z,14.99
2023-03-30T06:42:46.935Z,14.98
2023-03-30T06:45:14.963Z,15.04
2023-03-30T06:47:42.784Z,15.11
2023-03-30T06:50:11.737Z,15.10
2023-03-30T06:52:39.856Z,15.14
2023-03-30T06:55:07.959Z,15.17
2023-03-30T06:57:35.657Z,15.14
2023-03-30T07:00:10.201Z,15.19
2023-03-30T07:02:38.001Z,15.15
2023-03-30T07:05:07.405Z,15.24
2023-03-30T07:07:36.015Z,15.26
2023-03-30T07:10:09.931Z,15.33
2023-03-30T07:12:37.915Z,15.35
2023-03-30T07:15:08.797Z,15.47
2023-03-30T07:17:37.417Z,15.50
2023-03-30T07:20:07.989Z,15.49
2023-03-30T07:22:36.370Z,15.46
2023-03-30T07:25:04.588Z,15.48
2023-03-30T07:27:32.259Z,15.39
2023-03-30T07:30:10.199Z,15.27
2023-03-30T07:32:39.761Z,15.20
2023-03-30T07:35:08.875Z,15.16
2023-03-30T07:37:37.663Z,15.11
2023-03-30T07:40:07.416Z,15.09
2023-03-30T07:42:35.128Z,15.05
2023-03-30T07:45:02.964Z,14.97
2023-03-30T07:47:30.783Z,14.91
2023-03-30T07:49:59.848Z,14.82
2023-03-30T07:52:27.613Z,14.86
2023-03-30T07:54:55.624Z,14.87
2023-03-30T07:57:23.884Z,14.94
2023-03-30T07:59:51.935Z,14.98
2023-03-30T08:02:19.728Z,14.92
2023-03-30T08:04:47.690Z,14.82
2023-03-30T08:07:17.796Z,14.74
2023-03-30T08:09:46.122Z,14.77
2023-03-30T08:12:13.808Z,14.73
2023-03-30T08:14:41.759Z,14.68
2023-03-30T08:17:12.192Z,14.72
2023-03-30T08:19:39.951Z,14.77
2023-03-30T08:22:07.684Z,14.82
2023-03-30T08:24:36.772Z,14.90
2023-03-30T08:27:04.637Z,14.96
2023-03-30T08:29:33.637Z,14.95
2023-03-30T08:32:01.486Z,14.93
2023-03-30T08:34:29.242Z,14.89
2023-03-30T08:36:58.112Z,14.85
2023-03-30T08:39:26.372Z,14.77
2023-03-30T08:42:13.940Z,14.67
2023-03-30T08:44:42.663Z,14.61
2023-03-30T08:47:13.417Z,14.73
2023-03-30T08:49:46.012Z,14.88
2023-03-30T08:52:22.413Z,15.10
2023-03-30T08:54:52.108Z,15.18
2023-03-30T08:57:36.823Z,15.40
2023-03-30T09:00:17.586Z,15.61
2023-03-30T09:02:51.805Z,15.82
2023-03-30T09:05:26.701Z,15.91
2023-03-30T09:08:01.743Z,15.95
2023-03-30T09:10:32.912Z,15.91
2023-03-30T09:13:05.960Z,16.10
2023-03-30T09:15:40.069Z,16.18
2023-03-30T09:18:16.921Z,16.32
2023-03-30T09:20:47.153Z,16.46
2023-03-30T09:23:17.529Z,16.52
2023-03-30T09:25:53.365Z,16.52
2023-03-30T09:28:28.646Z,16.55
2023-03-30T09:31:02.618Z,16.49
2023-03-30T09:33:42.366Z,16.48
2023-03-30T09:36:16.021Z,16.37
2023-03-30T09:38:44.933Z,16.19
2023-03-30T09:41:25.835Z,16.19
2023-03-30T09:43:56.625Z,16.20
2023-03-30T09:46:24.399Z,16.22
2023-03-30T09:48:52.786Z,16.27
2023-03-30T09:51:23.279Z,16.38
2023-03-30T09:53:52.949Z,16.50
2023-03-30T09:56:29.159Z,16.63
2023-03-30T09:58:58.256Z,16.68
2023-03-30T10:01:38.912Z,16.76
2023-03-30T10:04:12.778Z,16.77
2023-03-30T10:06:47.622Z,16.68
2023-03-30T10:09:16.560Z,16.44
2023-03-30T10:11:46.603Z,16.37
2023-03-30T10:14:33.376Z,16.29
2023-03-30T10:17:01.775Z,16.31
2023-03-30T10:19:30.182Z,16.28
2023-03-30T10:21:59.628Z,16.18
2023-03-30T10:24:32.021Z,16.01
2023-03-30T10:27:00.543Z,16.06
2023-03-30T10:29:30.593Z,16.10
2023-03-30T10:32:01.332Z,16.17
2023-03-30T10:34:39.198Z,16.31
2023-03-30T10:37:10.826Z,16.46
2023-03-30T10:39:41.636Z,16.53
2023-03-30T10:42:13.231Z,16.56
2023-03-30T10:44:49.075Z,16.55
2023-03-30T10:48:00.469Z,16.61
2023-03-30T10:50:36.400Z,16.71
2023-03-30T10:53:17.300Z,16.75
2023-03-30T10:55:52.560Z,16.94
2023-03-30T10:58:32.181Z,17.13
2023-03-30T11:01:11.009Z,17.32
2023-03-30T11:03:43.382Z,17.32
2023-03-30T11:06:13.448Z,17.03
2023-03-30T11:08:44.848Z,16.91
2023-03-30T11:11:19.103Z,16.86
2023-03-30T11:13:50.987Z,16.88
2023-03-30T11:16:25.346Z,16.89
2023-03-30T11:18:58.051Z,16.94
2023-03-30T11:21:30.882Z,16.84
2023-03-30T11:24:02.655Z,16.78
2023-03-30T11:26:38.490Z,16.78
2023-03-30T11:29:31.819Z,16.99
2023-03-30T11:32:14.617Z,17.16
2023-03-30T11:34:52.759Z,17.15
2023-03-30T11:37:29.713Z,17.25
2023-03-30T11:40:08.327Z,17.23
2023-03-30T11:42:37.522Z,17.23
2023-03-30T11:45:17.199Z,17.27
2023-03-30T11:47:59.161Z,17.33
2023-03-30T11:50:44.626Z,17.38
2023-03-30T11:53:24.332Z,17.33
2023-03-30T11:56:08.770Z,17.41
2023-03-30T11:58:38.330Z,17.45
2023-03-30T12:01:29.454Z,17.60
2023-03-30T12:04:05.453Z,17.78
2023-03-30T12:06:34.501Z,17.85
2023-03-30T12:09:25.757Z,17.83
2023-03-30T12:11:58.285Z,17.90
2023-03-30T12:14:40.546Z,17.85
2023-03-30T12:17:19.328Z,17.78
2023-03-30T12:19:56.706Z,17.79
2023-03-30T12:22:31.732Z,17.71
2023-03-30T12:25:07.612Z,17.60
2023-03-30T12:27:52.572Z,17.58
2023-03-30T12:30:27.519Z,17.40
2023-03-30T12:33:01.180Z,17.34
2023-03-30T12:35:54.310Z,17.13
2023-03-30T12:38:25.525Z,16.93
2023-03-30T12:41:18.463Z,16.68
2023-03-30T12:44:10.071Z,15.82
2023-03-30T12:46:49.988Z,15.23
2023-03-30T12:49:27.042Z,15.13
2023-03-30T12:52:09.509Z,15.23
2023-03-30T12:54:43.088Z,15.36
2023-03-30T12:57:22.475Z,15.55
2023-03-30T13:00:08.920Z,15.61
2023-03-30T13:02:50.652Z,15.75
2023-03-30T13:05:21.742Z,15.89
2023-03-30T13:07:52.382Z,15.88
2023-03-30T13:10:40.624Z,15.87
2023-03-30T13:13:18.512Z,15.93
2023-03-30T13:15:49.305Z,15.96
2023-03-30T13:18:33.884Z,16.01
2023-03-30T13:21:21.573Z,16.09
2023-03-30T13:24:21.900Z,16.13
2023-03-30T13:26:51.457Z,16.17
2023-03-30T13:29:19.255Z,16.22
2023-03-30T13:32:04.253Z,16.43
2023-03-30T13:34:58.435Z,16.55
2023-03-30T13:37:59.176Z,16.58
2023-03-30T13:40:41.905Z,16.72
2023-03-30T13:43:22.339Z,16.76
2023-03-30T13:46:05.819Z,16.76
2023-03-30T13:48:53.938Z,16.82
2023-03-30T13:51:25.406Z,16.88
2023-03-30T13:53:56.959Z,16.92
2023-03-30T13:56:27.279Z,16.95
2023-03-30T13:59:02.497Z,16.97
2023-03-30T14:01:30.757Z,16.89
2023-03-30T14:04:16.279Z,16.81
2023-03-30T14:06:51.350Z,16.84
2023-03-30T14:09:23.348Z,16.94
2023-03-30T14:11:54.798Z,17.08
2023-03-30T14:14:27.901Z,17.18
2023-03-30T14:16:57.197Z,17.21
2023-03-30T14:19:28.648Z,17.17
2023-03-30T14:22:00.568Z,17.19
2023-03-30T14:24:30.673Z,17.10
2023-03-30T14:27:08.318Z,17.07
2023-03-30T14:29:44.883Z,16.99
2023-03-30T14:32:15.120Z,16.86
2023-03-30T14:34:47.246Z,16.56
2023-03-30T14:37:15.623Z,16.46
2023-03-30T14:39:46.820Z,16.49
2023-03-30T14:42:19.618Z,16.63
2023-03-30T14:44:50.054Z,16.65
2023-03-30T14:47:22.189Z,16.65
2023-03-30T14:49:52.497Z,16.65
2023-03-30T14:52:21.945Z,16.73
2023-03-30T14:55:05.276Z,16.80
2023-03-30T14:57:40.467Z,16.70
2023-03-30T15:00:18.288Z,16.61
2023-03-30T15:02:47.422Z,16.56
2023-03-30T15:05:17.747Z,16.57
2023-03-30T15:07:49.070Z,16.56
2023-03-30T15:10:25.556Z,16.54
2023-03-30T15:12:57.543Z,16.54
2023-03-30T15:15:28.163Z,16.50
2023-03-30T15:17:56.511Z,16.41
2023-03-30T15:20:26.608Z,16.14
2023-03-30T15:22:55.149Z,15.54
2023-03-30T15:25:30.123Z,15.21
2023-03-30T15:28:04.745Z,14.92
2023-03-30T15:30:36.480Z,14.73
2023-03-30T15:33:05.817Z,14.92
2023-03-30T15:35:35.727Z,15.16
2023-03-30T15:38:22.567Z,15.33
2023-03-30T15:40:51.033Z,15.40
2023-03-30T15:43:22.148Z,15.44
2023-03-30T15:45:55.626Z,15.43
2023-03-30T15:48:26.639Z,15.44
2023-03-30T15:51:03.863Z,15.43
2023-03-30T15:53:44.367Z,15.44
2023-03-30T15:56:21.326Z,15.49
2023-03-30T15:58:52.114Z,15.58
2023-03-30T16:01:19.836Z,15.61
2023-03-30T16:03:55.674Z,15.64
2023-03-30T16:06:24.216Z,15.74
2023-03-30T16:08:51.878Z,15.78
2023-03-30T16:11:20.677Z,15.86
2023-03-30T16:13:49.791Z,15.96
2023-03-30T16:16:19.358Z,15.93
2023-03-30T16:18:47.182Z,15.99
2023-03-30T16:21:15.761Z,15.97
2023-03-30T16:23:43.440Z,15.93
2023-03-30T16:26:12.144Z,15.85
2023-03-30T16:28:42.572Z,15.77
2023-03-30T16:31:15.896Z,15.62
2023-03-30T16:33:49.951Z,15.50
2023-03-30T16:36:24.065Z,15.47
2023-03-30T16:38:51.824Z,15.46
2023-03-30T16:41:21.028Z,15.39
2023-03-30T16:43:49.088Z,15.34
2023-03-30T16:46:19.473Z,15.35
2023-03-30T16:48:48.774Z,15.36
2023-03-30T16:51:17.189Z,15.38
2023-03-30T16:53:45.153Z,15.33
2023-03-30T16:56:18.355Z,15.35
2023-03-30T16:58:47.579Z,15.40
2023-03-30T17:01:20.105Z,15.51
2023-03-30T17:03:49.437Z,15.53
2023-03-30T17:06:17.222Z,15.37
2023-03-30T17:08:45.364Z,15.13
2023-03-30T17:11:13.825Z,14.96
2023-03-30T17:13:42.412Z,14.82
2023-03-30T17:16:12.614Z,14.68
2023-03-30T17:18:40.353Z,14.58
2023-03-30T17:21:16.118Z,14.50
2023-03-30T17:23:44.863Z,14.43
2023-03-30T17:26:13.280Z,14.36
2023-03-30T17:28:41.378Z,14.29
2023-03-30T17:31:16.284Z,14.24
2023-03-30T17:33:47.441Z,14.21
2023-03-30T17:36:19.451Z,14.13
2023-03-30T17:38:55.111Z,14.12
2023-03-30T17:41:22.764Z,14.13
2023-03-30T17:43:51.494Z,14.15
2023-03-30T17:46:21.187Z,14.16
2023-03-30T17:48:51.019Z,14.13
2023-03-30T17:51:20.579Z,14.12
2023-03-30T17:53:48.272Z,14.10
2023-03-30T17:56:16.023Z,14.04
2023-03-30T17:58:43.752Z,13.99
2023-03-30T18:01:12.392Z,13.94
2023-03-30T18:03:40.694Z,13.90
2023-03-30T18:06:08.805Z,13.88
2023-03-30T18:08:39.015Z,13.85
2023-03-30T18:11:07.098Z,13.86
2023-03-30T18:13:35.035Z,13.86
2023-03-30T18:16:02.949Z,13.81
2023-03-30T18:18:32.258Z,13.81
2023-03-30T18:21:02.473Z,13.81
2023-03-30T18:23:31.449Z,13.75
2023-03-30T18:26:01.517Z,13.68
2023-03-30T18:28:30.715Z,13.63
2023-03-30T18:31:00.518Z,13.63
2023-03-30T18:33:28.360Z,13.61
2023-03-30T18:35:57.816Z,13.64
2023-03-30T18:38:26.418Z,13.67
2023-03-30T18:40:57.626Z,13.66
2023-03-30T18:43:27.263Z,13.67
2023-03-30T18:45:58.557Z,13.66
2023-03-30T18:48:28.854Z,13.62
2023-03-30T18:50:56.898Z,13.58
2023-03-30T18:53:28.095Z,13.57
2023-03-30T18:55:58.500Z,13.55
2023-03-30T18:58:29.707Z,13.56
2023-03-30T19:00:57.635Z,13.61
2023-03-30T19:03:27.187Z,13.58
2023-03-30T19:05:55.963Z,13.64
2023-03-30T19:08:25.324Z,13.64
2023-03-30T19:10:54.908Z,13.64
2023-03-30T19:13:23.725Z,13.62
2023-03-30T19:15:54.056Z,13.65
2023-03-30T19:18:22.199Z,13.67
2023-03-30T19:20:51.086Z,13.67
2023-03-30T19:23:21.567Z,13.69
2023-03-30T19:25:49.845Z,13.67
2023-03-30T19:28:17.983Z,13.69
2023-03-30T19:30:45.907Z,13.69
2023-03-30T19:33:17.289Z,13.73
2023-03-30T19:35:46.748Z,13.76
2023-03-30T19:38:15.633Z,13.77
2023-03-30T19:40:43.653Z,13.77
2023-03-30T19:43:11.980Z,13.81
2023-03-30T19:45:40.027Z,13.85
2023-03-30T19:48:08.122Z,13.81
2023-03-30T19:50:38.475Z,13.79
2023-03-30T19:53:06.153Z,13.83
2023-03-30T19:55:33.861Z,13.84
2023-03-30T19:58:01.765Z,13.83
2023-03-30T20:00:31.371Z,13.85
2023-03-30T20:02:59.225Z,13.82
2023-03-30T20:05:27.043Z,13.80
2023-03-30T20:07:57.585Z,13.81
2023-03-30T20:10:26.532Z,13.79
2023-03-30T20:12:55.111Z,13.79
2023-03-30T20:15:24.843Z,13.80
2023-03-30T20:17:56.369Z,13.77
2023-03-30T20:20:25.438Z,13.75
2023-03-30T20:22:56.404Z,13.71
2023-03-30T20:25:25.965Z,13.63
2023-03-30T20:27:56.872Z,13.56
2023-03-30T20:30:24.562Z,13.50
2023-03-30T20:33:06.797Z,13.46
2023-03-30T20:35:37.369Z,13.38
2023-03-30T20:38:06.182Z,13.39
2023-03-30T20:40:35.749Z,13.38
2023-03-30T20:43:03.639Z,13.36
2023-03-30T20:45:31.957Z,13.32
2023-03-30T20:48:05.980Z,13.31
2023-03-30T20:50:34.577Z,13.27
2023-03-30T20:53:02.257Z,13.23
2023-03-30T20:55:29.930Z,13.24
2023-03-30T20:57:59.145Z,13.23
2023-03-30T21:00:27.427Z,13.18
2023-03-30T21:02:55.151Z,13.12
2023-03-30T21:05:22.867Z,13.08
2023-03-30T21:07:50.544Z,13.07
2023-03-30T21:10:18.297Z,13.08
2023-03-30T21:12:46.144Z,13.14
2023-03-30T21:15:15.291Z,13.11
2023-03-30T21:17:43.468Z,13.09
2023-03-30T21:20:14.030Z,13.08
2023-03-30T21:22:41.737Z,13.11
2023-03-30T21:25:11.331Z,13.09
2023-03-30T21:27:39.069Z,13.13
2023-03-30T21:30:08.179Z,13.05
2023-03-30T21:32:37.436Z,13.00
2023-03-30T21:35:05.584Z,12.96
2023-03-30T21:37:33.271Z,12.95
2023-03-30T21:40:01.089Z,12.93
2023-03-30T21:42:28.773Z,12.93
2023-03-30T21:44:56.464Z,12.91
2023-03-30T21:47:24.127Z,12.92
2023-03-30T21:49:53.215Z,12.84
2023-03-30T21:52:20.919Z,12.83
2023-03-30T21:54:48.632Z,12.77
2023-03-30T21:57:16.393Z,12.76
2023-03-30T21:59:44.144Z,12.71
2023-03-30T22:02:11.839Z,12.72
2023-03-30T22:04:39.645Z,12.69
2023-03-30T22:07:08.692Z,12.64
2023-03-30T22:09:36.727Z,12.64
2023-03-30T22:12:04.593Z,12.61
2023-03-30T22:14:32.337Z,12.57
2023-03-30T22:17:00.014Z,12.53
2023-03-30T22:19:28.957Z,12.56
2023-03-30T22:21:56.629Z,12.58
2023-03-30T22:24:25.648Z,12.62
2023-03-30T22:26:53.393Z,12.71
2023-03-30T22:29:23.199Z,12.71
2023-03-30T22:31:52.816Z,12.70
2023-03-30T22:34:20.959Z,12.73
2023-03-30T22:36:48.598Z,12.75
2023-03-30T22:39:16.682Z,12.75
2023-03-30T22:41:46.138Z,12.77
2023-03-30T22:44:13.798Z,12.78
2023-03-30T22:46:41.462Z,12.80
2023-03-30T22:49:09.674Z,12.81
2023-03-30T22:51:38.194Z,12.80
2023-03-30T22:54:06.277Z,12.85
2023-03-30T22:56:33.972Z,12.81
2023-03-30T22:59:03.629Z,12.79
2023-03-30T23:01:32.071Z,12.78
2023-03-30T23:04:00.677Z,12.72
2023-03-30T23:06:28.455Z,12.71
2023-03-30T23:08:56.094Z,12.66
2023-03-30T23:11:23.975Z,12.59
2023-03-30T23:13:52.387Z,12.57
2023-03-30T23:16:21.858Z,12.55
2023-03-30T23:18:50.231Z,12.52
2023-03-30T23:21:18.023Z,12.50
2023-03-30T23:23:45.704Z,12.47
2023-03-30T23:26:13.401Z,12.48
2023-03-30T23:28:42.326Z,12.43
2023-03-30T23:31:11.888Z,12.41
2023-03-30T23:33:41.448Z,12.37
2023-03-30T23:36:10.438Z,12.35
2023-03-30T23:38:38.582Z,12.37
2023-03-30T23:41:07.678Z,12.36
2023-03-30T23:43:35.489Z,12.39
2023-03-30T23:46:03.362Z,12.32
2023-03-30T23:48:31.540Z,12.37
2023-03-30T23:51:00.795Z,12.35
2023-03-30T23:53:28.667Z,12.34
2023-03-30T23:55:56.438Z,12.34
2023-03-30T23:58:24.082Z,12.35
